createdAt,value
2022-12-13T00:00:56.768Z,34.35
2022-12-13T00:03:23.169Z,34.20
2022-12-13T00:05:49.594Z,32.90
2022-12-13T00:08:16.036Z,33.35
2022-12-13T00:10:42.461Z,33.30
2022-12-13T00:13:09.000Z,31.50
2022-12-13T00:15:35.495Z,33.47
2022-12-13T00:18:01.855Z,30.65
2022-12-13T00:20:28.411Z,30.95
2022-12-13T00:22:54.782Z,29.60
2022-12-13T00:25:21.489Z,30.65
2022-12-13T00:27:47.931Z,29.92
2022-12-13T00:30:14.371Z,29.90
2022-12-13T00:32:40.780Z,28.20
2022-12-13T00:35:07.660Z,29.23
2022-12-13T00:37:34.034Z,30.38
2022-12-13T00:40:00.423Z,31.00
2022-12-13T00:42:27.978Z,29.20
2022-12-13T00:44:54.470Z,28.48
2022-12-13T00:47:22.179Z,28.58
2022-12-13T00:49:48.636Z,29.27
2022-12-13T00:52:15.018Z,29.55
2022-12-13T00:54:41.745Z,28.33
2022-12-13T00:57:08.292Z,28.48
2022-12-13T00:59:34.669Z,28.25
2022-12-13T01:02:01.033Z,27.23
2022-12-13T01:04:27.719Z,27.92
2022-12-13T01:06:55.093Z,27.73
2022-12-13T01:09:29.628Z,29.58
2022-12-13T01:11:57.901Z,28.40
2022-12-13T01:14:24.530Z,28.63
2022-12-13T01:16:50.948Z,28.20
2022-12-13T01:19:17.402Z,28.75
2022-12-13T01:21:43.775Z,28.75
2022-12-13T01:24:10.389Z,27.73
2022-12-13T01:26:36.887Z,27.25
2022-12-13T01:29:05.515Z,26.73
2022-12-13T01:31:32.136Z,28.48
2022-12-13T01:33:58.645Z,28.50
2022-12-13T01:36:27.526Z,27.80
2022-12-13T01:38:58.019Z,26.40
2022-12-13T01:41:27.216Z,27.65
2022-12-13T01:43:57.532Z,26.65
2022-12-13T01:46:24.097Z,25.70
2022-12-13T01:48:59.234Z,26.23
2022-12-13T01:51:31.357Z,28.08
2022-12-13T01:54:00.604Z,26.63
2022-12-13T01:56:50.010Z,27.00
2022-12-13T01:59:19.118Z,26.55
2022-12-13T02:01:49.485Z,25.92
2022-12-13T02:04:21.109Z,26.52
2022-12-13T02:06:47.692Z,26.33
2022-12-13T02:09:14.957Z,26.77
2022-12-13T02:11:43.540Z,26.88
2022-12-13T02:14:10.415Z,27.27
2022-12-13T02:16:48.966Z,26.75
2022-12-13T02:19:58.623Z,26.65
2022-12-13T02:22:48.729Z,26.00
2022-12-13T02:25:56.688Z,26.05
2022-12-13T02:28:38.122Z,26.27
2022-12-13T02:31:12.578Z,27.13
2022-12-13T02:33:59.456Z,27.52
2022-12-13T02:36:36.202Z,26.42
2022-12-13T02:39:30.234Z,24.88
2022-12-13T02:42:04.046Z,25.02
2022-12-13T02:47:23.753Z,24.92
2022-12-13T02:49:54.032Z,24.48
2022-12-13T02:52:24.927Z,24.58
2022-12-13T02:54:54.352Z,24.77
2022-12-13T02:57:49.950Z,24.30
2022-12-13T03:00:20.453Z,24.50
2022-12-13T03:03:40.990Z,24.83
2022-12-13T03:06:33.514Z,24.80
2022-12-13T03:14:31.548Z,23.98
2022-12-13T03:17:02.478Z,24.38
2022-12-13T03:19:29.221Z,23.08
2022-12-13T03:21:55.591Z,24.55
2022-12-13T03:24:22.034Z,24.05
2022-12-13T03:26:49.943Z,24.10
2022-12-13T03:29:24.118Z,25.00
2022-12-13T03:31:52.689Z,23.08
2022-12-13T03:34:22.911Z,23.48
2022-12-13T03:36:52.153Z,23.98
2022-12-13T03:39:19.689Z,23.85
2022-12-13T03:41:46.338Z,22.73
2022-12-13T03:44:12.827Z,22.70
2022-12-13T03:46:39.268Z,23.65
2022-12-13T03:49:05.789Z,23.65
2022-12-13T03:51:32.312Z,23.70
2022-12-13T03:53:58.699Z,23.70
2022-12-13T03:56:26.152Z,23.95
2022-12-13T03:58:52.559Z,23.80
2022-12-13T04:01:19.056Z,23.70
2022-12-13T04:03:46.790Z,22.55
2022-12-13T04:06:22.000Z,23.85
2022-12-13T04:08:51.435Z,23.75
2022-12-13T04:11:42.759Z,22.95
2022-12-13T04:14:10.984Z,23.02
2022-12-13T04:16:37.618Z,23.25
2022-12-13T04:19:04.095Z,23.02
2022-12-13T04:21:30.494Z,23.00
2022-12-13T04:23:56.895Z,23.70
2022-12-13T04:26:27.888Z,22.92
2022-12-13T04:28:54.888Z,23.17
2022-12-13T04:31:22.127Z,22.67
2022-12-13T04:33:48.738Z,24.55
2022-12-13T04:36:30.855Z,24.60
2022-12-13T04:39:00.579Z,24.02
2022-12-13T04:41:34.512Z,23.20
2022-12-13T04:44:01.923Z,24.70
2022-12-13T04:46:28.289Z,23.58
2022-12-13T04:48:54.853Z,25.27
2022-12-13T04:51:21.346Z,22.52
2022-12-13T04:53:47.764Z,22.35
2022-12-13T04:56:14.236Z,24.17
2022-12-13T04:58:40.689Z,23.67
2022-12-13T05:01:11.345Z,24.02
2022-12-13T05:03:39.251Z,24.25
2022-12-13T05:06:26.567Z,23.77
2022-12-13T05:08:54.504Z,23.95
2022-12-13T05:11:23.050Z,23.52
2022-12-13T05:13:50.064Z,24.63
2022-12-13T05:16:16.523Z,23.05
2022-12-13T05:18:43.060Z,23.50
2022-12-13T05:21:11.537Z,24.83
2022-12-13T05:23:38.999Z,23.65
2022-12-13T05:26:05.760Z,24.67
2022-12-13T05:28:32.690Z,24.83
2022-12-13T05:31:23.300Z,25.70
2022-12-13T05:33:51.361Z,23.98
2022-12-13T05:36:18.039Z,24.67
2022-12-13T05:38:44.824Z,24.65
2022-12-13T05:41:17.760Z,23.45
2022-12-13T05:43:44.235Z,24.00
2022-12-13T05:46:14.233Z,24.05
2022-12-13T05:48:41.018Z,23.48
2022-12-13T05:51:11.199Z,24.05
2022-12-13T05:53:40.066Z,24.20
2022-12-13T05:56:07.106Z,24.30
2022-12-13T05:58:35.673Z,23.63
2022-12-13T06:01:08.773Z,25.75
2022-12-13T06:03:35.813Z,24.70
2022-12-13T06:06:03.686Z,24.65
2022-12-13T06:08:31.176Z,24.55
2022-12-13T06:11:10.873Z,23.98
2022-12-13T06:13:42.938Z,24.50
2022-12-13T06:16:22.785Z,24.98
2022-12-13T06:18:50.533Z,25.77
2022-12-13T06:21:17.788Z,24.25
2022-12-13T06:23:44.335Z,24.83
2022-12-13T06:26:10.727Z,24.73
2022-12-13T06:28:37.109Z,24.10
2022-12-13T06:31:04.936Z,25.55
2022-12-13T06:33:35.460Z,25.27
2022-12-13T06:36:03.061Z,26.00
2022-12-13T06:38:31.863Z,26.33
2022-12-13T06:41:13.108Z,26.20
2022-12-13T06:43:46.327Z,27.10
2022-12-13T06:46:13.617Z,26.38
2022-12-13T06:48:40.568Z,25.83
2022-12-13T06:51:08.247Z,26.80
2022-12-13T06:53:37.256Z,25.65
2022-12-13T06:56:08.615Z,27.20
2022-12-13T06:58:35.713Z,26.05
2022-12-13T07:01:04.752Z,27.00
2022-12-13T07:03:32.190Z,24.70
2022-12-13T07:05:59.915Z,25.83
2022-12-13T07:08:26.938Z,26.85
2022-12-13T07:10:55.079Z,25.70
2022-12-13T07:13:22.291Z,26.35
2022-12-13T07:15:49.570Z,27.65
2022-12-13T07:18:17.925Z,27.13
2022-12-13T07:20:44.956Z,27.85
2022-12-13T07:23:12.098Z,26.50
2022-12-13T07:25:38.481Z,26.58
2022-12-13T07:28:08.132Z,26.95
2022-12-13T07:30:41.352Z,26.05
2022-12-13T07:33:08.690Z,27.75
2022-12-13T07:35:37.095Z,26.92
2022-12-13T07:38:09.590Z,27.15
2022-12-13T07:40:38.179Z,26.08
2022-12-13T07:43:05.148Z,26.13
2022-12-13T07:45:31.933Z,27.60
2022-12-13T07:47:59.207Z,27.73
2022-12-13T07:50:25.955Z,26.48
2022-12-13T07:52:53.315Z,27.30
2022-12-13T07:55:23.345Z,27.13
2022-12-13T07:58:10.588Z,27.17
2022-12-13T08:00:38.597Z,26.27
2022-12-13T08:03:06.179Z,26.23
2022-12-13T08:05:38.711Z,27.88
2022-12-13T08:08:08.128Z,27.58
2022-12-13T08:10:34.590Z,27.05
2022-12-13T08:13:04.501Z,27.50
2022-12-13T08:15:31.136Z,27.83
2022-12-13T08:18:00.753Z,29.38
2022-12-13T08:20:27.267Z,27.58
2022-12-13T08:23:01.977Z,28.17
2022-12-13T08:25:30.404Z,31.85
2022-12-13T08:28:01.902Z,29.55
2022-12-13T08:30:29.296Z,30.30
2022-12-13T08:32:55.868Z,28.92
2022-12-13T08:35:22.374Z,30.40
2022-12-13T08:37:48.763Z,30.50
2022-12-13T08:40:15.121Z,30.60
2022-12-13T08:42:41.596Z,30.95
2022-12-13T08:45:08.647Z,31.60
2022-12-13T08:47:41.313Z,31.98
2022-12-13T08:50:08.426Z,32.63
2022-12-13T08:52:39.148Z,32.25
2022-12-13T08:55:08.435Z,30.42
2022-12-13T08:57:36.813Z,32.85
2022-12-13T09:00:05.516Z,34.17
2022-12-13T09:02:31.978Z,33.08
2022-12-13T09:05:05.931Z,32.17
2022-12-13T09:07:32.297Z,33.25
2022-12-13T09:09:58.829Z,32.60
2022-12-13T09:12:33.746Z,31.92
2022-12-13T09:15:21.931Z,65.03
2022-12-13T09:17:52.420Z,40.05
2022-12-13T09:20:29.049Z,32.03
2022-12-13T09:23:01.620Z,30.52
2022-12-13T09:25:37.299Z,30.15
2022-12-13T09:28:06.781Z,29.70
2022-12-13T09:30:33.218Z,30.10
2022-12-13T09:33:00.237Z,29.65
2022-12-13T09:35:46.938Z,32.13
2022-12-13T09:38:13.407Z,29.08
2022-12-13T09:40:43.236Z,29.63
2022-12-13T09:43:22.655Z,30.33
2022-12-13T09:45:51.371Z,28.75
2022-12-13T09:48:22.407Z,30.30
2022-12-13T09:50:58.027Z,28.75
2022-12-13T09:53:37.832Z,27.58
2022-12-13T09:56:10.768Z,35.28
2022-12-13T09:58:38.007Z,29.45
2022-12-13T10:01:05.454Z,26.58
2022-12-13T10:03:31.958Z,25.13
2022-12-13T10:05:58.901Z,30.75
2022-12-13T10:08:35.220Z,33.17
2022-12-13T10:11:01.628Z,23.08
2022-12-13T10:13:42.587Z,43.75
2022-12-13T10:16:26.704Z,28.60
2022-12-13T10:19:29.340Z,24.70
2022-12-13T10:22:01.543Z,23.92
2022-12-13T10:24:46.789Z,26.65
2022-12-13T10:27:29.915Z,29.40
2022-12-13T10:29:57.507Z,67.38
2022-12-13T10:32:24.050Z,27.25
2022-12-13T10:34:50.623Z,29.85
2022-12-13T10:37:23.003Z,34.42
2022-12-13T10:39:49.996Z,27.33
2022-12-13T10:42:22.757Z,24.08
2022-12-13T10:45:13.942Z,22.67
2022-12-13T10:47:43.706Z,28.80
2022-12-13T10:50:24.461Z,22.35
2022-12-13T10:52:51.523Z,20.73
2022-12-13T10:55:38.167Z,27.13
2022-12-13T10:58:18.806Z,21.48
2022-12-13T11:00:47.694Z,21.05
2022-12-13T11:03:30.140Z,20.98
2022-12-13T11:06:05.287Z,17.63
2022-12-13T11:08:31.652Z,17.85
2022-12-13T11:11:00.439Z,25.25
2022-12-13T11:13:38.323Z,17.33
2022-12-13T11:16:30.654Z,15.48
2022-12-13T11:19:00.767Z,16.13
2022-12-13T11:21:34.072Z,18.15
2022-12-13T11:26:38.137Z,17.10
2022-12-13T11:29:25.767Z,17.02
2022-12-13T11:31:52.142Z,15.30
2022-12-13T11:34:42.692Z,15.35
2022-12-13T11:37:26.311Z,16.17
2022-12-13T11:42:36.489Z,15.38
2022-12-13T11:45:23.524Z,12.48
2022-12-13T11:48:13.033Z,15.10
2022-12-13T11:50:43.031Z,14.88
2022-12-13T11:53:28.532Z,13.82
2022-12-13T11:55:58.859Z,15.73
2022-12-13T11:59:01.955Z,14.93
2022-12-13T12:01:29.512Z,14.23
2022-12-13T12:04:34.543Z,13.05
2022-12-13T12:07:32.367Z,13.57
2022-12-13T12:10:22.639Z,13.27
2022-12-13T12:12:56.025Z,14.00
2022-12-13T12:17:56.255Z,13.45
2022-12-13T12:20:50.005Z,14.10
2022-12-13T12:23:22.478Z,20.35
2022-12-13T12:26:01.150Z,13.73
2022-12-13T12:29:01.331Z,13.57
2022-12-13T12:31:50.987Z,13.63
2022-12-13T12:34:35.896Z,20.02
2022-12-13T12:37:17.950Z,12.45
2022-12-13T12:39:54.523Z,11.95
2022-12-13T12:42:26.814Z,10.95
2022-12-13T12:48:58.451Z,17.88
2022-12-13T12:51:47.147Z,14.48
2022-12-13T12:54:16.320Z,11.50
2022-12-13T12:56:51.285Z,11.88
2022-12-13T12:59:36.513Z,12.73
2022-12-13T13:02:22.094Z,14.73
2022-12-13T13:04:53.609Z,11.15
2022-12-13T13:07:39.786Z,12.15
2022-12-13T13:10:16.784Z,10.68
2022-12-13T13:13:01.825Z,10.77
2022-12-13T13:15:39.121Z,12.82
2022-12-13T13:18:44.739Z,16.50
2022-12-13T13:21:23.407Z,12.30
2022-12-13T13:24:08.137Z,12.02
2022-12-13T13:26:39.740Z,12.30
2022-12-13T13:29:27.801Z,12.43
2022-12-13T13:32:28.708Z,12.75
2022-12-13T13:35:32.197Z,12.35
2022-12-13T13:38:28.435Z,11.93
2022-12-13T13:40:54.832Z,11.02
2022-12-13T13:43:32.432Z,9.52
2022-12-13T13:46:02.651Z,11.38
2022-12-13T13:49:03.532Z,11.38
2022-12-13T13:52:08.715Z,11.55
2022-12-13T13:55:01.191Z,13.20
2022-12-13T13:58:14.109Z,11.07
2022-12-13T14:01:26.019Z,10.05
2022-12-13T14:04:22.392Z,12.95
2022-12-13T14:07:01.410Z,12.57
2022-12-13T14:10:05.619Z,10.68
2022-12-13T14:13:09.687Z,11.38
2022-12-13T14:15:55.001Z,12.00
2022-12-13T14:18:53.459Z,13.40
2022-12-13T14:21:32.208Z,13.77
2022-12-13T14:24:14.033Z,11.88
2022-12-13T14:27:07.070Z,12.27
2022-12-13T14:29:40.025Z,14.50
2022-12-13T14:32:27.456Z,17.30
2022-12-13T14:34:55.808Z,15.35
2022-12-13T14:37:28.482Z,15.48
2022-12-13T14:39:54.916Z,14.35
2022-12-13T14:42:35.631Z,16.98
2022-12-13T14:45:26.259Z,14.75
2022-12-13T14:47:54.325Z,14.45
2022-12-13T14:50:21.361Z,12.55
2022-12-13T14:52:49.733Z,12.00
2022-12-13T14:55:24.393Z,13.52
2022-12-13T14:57:55.975Z,12.82
2022-12-13T15:00:35.284Z,13.68
2022-12-13T15:03:04.201Z,14.20
2022-12-13T15:05:44.337Z,16.92
2022-12-13T15:08:17.171Z,15.60
2022-12-13T15:10:48.271Z,15.00
2022-12-13T15:13:29.027Z,13.57
2022-12-13T15:16:00.259Z,13.25
2022-12-13T15:18:33.108Z,11.43
2022-12-13T15:21:22.883Z,12.13
2022-12-13T15:23:59.913Z,12.20
2022-12-13T15:26:30.147Z,12.52
2022-12-13T15:29:00.002Z,14.90
2022-12-13T15:31:27.646Z,16.15
2022-12-13T15:33:54.543Z,18.85
2022-12-13T15:36:29.050Z,19.67
2022-12-13T15:38:55.337Z,19.45
2022-12-13T15:41:28.581Z,19.70
2022-12-13T15:43:59.790Z,20.92
2022-12-13T15:46:32.463Z,20.88
2022-12-13T15:49:02.916Z,21.08
2022-12-13T15:51:30.736Z,21.48
2022-12-13T15:54:05.851Z,21.77
2022-12-13T15:56:35.691Z,22.23
2022-12-13T15:59:04.300Z,22.52
2022-12-13T16:01:36.325Z,25.05
2022-12-13T16:04:05.026Z,23.77
2022-12-13T16:06:32.950Z,24.90
2022-12-13T16:09:02.548Z,24.30
2022-12-13T16:11:41.725Z,25.40
2022-12-13T16:14:35.220Z,24.33
2022-12-13T16:17:16.764Z,25.27
2022-12-13T16:19:43.650Z,22.13
2022-12-13T16:22:10.105Z,24.35
2022-12-13T16:24:38.167Z,23.50
2022-12-13T16:27:08.468Z,24.38
2022-12-13T16:29:35.702Z,25.92
2022-12-13T16:32:08.294Z,25.30
2022-12-13T16:34:35.780Z,24.55
2022-12-13T16:37:02.315Z,25.15
2022-12-13T16:39:35.526Z,23.92
2022-12-13T16:42:01.907Z,24.70
2022-12-13T16:44:37.366Z,24.17
2022-12-13T16:47:14.998Z,24.23
2022-12-13T16:49:47.052Z,23.58
2022-12-13T16:52:13.403Z,24.17
2022-12-13T16:54:40.209Z,23.08
2022-12-13T16:57:06.605Z,22.85
2022-12-13T16:59:32.968Z,23.10
2022-12-13T17:01:59.784Z,22.85
2022-12-13T17:04:29.293Z,23.05
2022-12-13T17:06:55.768Z,23.52
2022-12-13T17:09:23.022Z,24.25
2022-12-13T17:11:49.439Z,24.17
2022-12-13T17:14:15.842Z,22.70
2022-12-13T17:16:42.280Z,24.05
2022-12-13T17:19:11.276Z,24.75
2022-12-13T17:21:37.676Z,21.02
2022-12-13T17:24:04.332Z,21.80
2022-12-13T17:26:32.691Z,21.08
2022-12-13T17:28:59.083Z,19.08
2022-12-13T17:31:28.088Z,19.80
2022-12-13T17:33:59.853Z,18.88
2022-12-13T17:36:26.824Z,19.13
2022-12-13T17:38:53.227Z,18.23
2022-12-13T17:41:19.792Z,17.58
2022-12-13T17:43:46.169Z,19.20
2022-12-13T17:46:17.693Z,19.58
2022-12-13T17:48:45.585Z,18.60
2022-12-13T17:51:13.924Z,20.02
2022-12-13T17:53:42.603Z,20.92
2022-12-13T17:56:12.082Z,19.38
2022-12-13T17:58:39.028Z,18.88
2022-12-13T18:01:20.921Z,20.40
2022-12-13T18:03:48.706Z,19.90
2022-12-13T18:06:15.379Z,20.05
2022-12-13T18:08:44.698Z,18.88
2022-12-13T18:13:59.143Z,20.58
2022-12-13T18:16:33.974Z,19.33
2022-12-13T18:19:04.957Z,18.90
2022-12-13T18:21:31.375Z,19.50
2022-12-13T18:23:59.349Z,18.90
2022-12-13T18:26:25.755Z,19.55
2022-12-13T18:28:52.454Z,18.20
2022-12-13T18:31:22.083Z,19.42
2022-12-13T18:33:49.615Z,19.58
2022-12-13T18:36:17.092Z,20.40
2022-12-13T18:38:43.810Z,19.88
2022-12-13T18:41:14.618Z,20.17
2022-12-13T18:43:42.690Z,20.65
2022-12-13T18:46:10.638Z,20.88
2022-12-13T18:48:37.087Z,21.48
2022-12-13T18:51:05.717Z,21.33
2022-12-13T18:53:33.539Z,22.10
2022-12-13T18:56:19.706Z,21.25
2022-12-13T18:58:48.076Z,20.85
2022-12-13T19:01:15.837Z,20.83
2022-12-13T19:03:44.599Z,22.25
2022-12-13T19:06:15.699Z,21.98
2022-12-13T19:08:42.099Z,21.63
2022-12-13T19:11:08.519Z,22.13
2022-12-13T19:13:34.917Z,21.38
2022-12-13T19:16:08.204Z,20.45
2022-12-13T19:21:01.814Z,21.48
2022-12-13T19:23:29.099Z,21.10
2022-12-13T19:25:55.783Z,21.08
2022-12-13T19:28:22.279Z,20.95
2022-12-13T19:30:48.692Z,22.50
2022-12-13T19:33:15.285Z,21.67
2022-12-13T19:35:43.051Z,21.70
2022-12-13T19:38:09.961Z,21.92
2022-12-13T19:40:39.913Z,23.10
2022-12-13T19:43:06.936Z,22.92
2022-12-13T19:45:33.712Z,21.70
2022-12-13T19:48:00.159Z,22.63
2022-12-13T19:50:26.710Z,21.77
2022-12-13T19:52:54.141Z,20.98
2022-12-13T19:55:20.811Z,20.98
2022-12-13T19:57:47.297Z,20.98
2022-12-13T20:00:14.271Z,20.48
2022-12-13T20:02:42.142Z,20.92
2022-12-13T20:05:09.324Z,20.10
2022-12-13T20:07:35.768Z,19.75
2022-12-13T20:10:02.404Z,20.35
2022-12-13T20:12:29.408Z,21.60
2022-12-13T20:14:56.196Z,19.90
2022-12-13T20:17:22.592Z,20.83
2022-12-13T20:19:49.002Z,19.45
2022-12-13T20:22:15.665Z,19.80
2022-12-13T20:24:42.066Z,20.40
2022-12-13T20:27:08.772Z,19.60
2022-12-13T20:29:35.432Z,19.10
2022-12-13T20:32:02.437Z,19.08
2022-12-13T20:34:29.063Z,19.35
2022-12-13T20:36:55.475Z,18.80
2022-12-13T20:39:22.016Z,19.35
2022-12-13T20:41:48.723Z,19.70
2022-12-13T20:44:15.779Z,18.70
2022-12-13T20:46:42.691Z,19.48
2022-12-13T20:49:09.688Z,19.70
2022-12-13T20:51:37.781Z,18.08
2022-12-13T20:54:04.689Z,19.80
2022-12-13T20:56:34.955Z,18.73
2022-12-13T20:59:07.393Z,19.17
2022-12-13T21:01:38.245Z,19.00
2022-12-13T21:04:06.682Z,19.65
2022-12-13T21:06:36.049Z,18.95
2022-12-13T21:09:03.623Z,17.85
2022-12-13T21:11:41.893Z,19.13
2022-12-13T21:14:22.973Z,18.60
2022-12-13T21:16:58.498Z,18.67
2022-12-13T21:19:27.405Z,17.42
2022-12-13T21:21:55.168Z,18.65
2022-12-13T21:24:23.273Z,19.05
2022-12-13T21:26:51.089Z,17.73
2022-12-13T21:29:18.182Z,19.63
2022-12-13T21:31:48.694Z,18.70
2022-12-13T21:34:16.473Z,18.80
2022-12-13T21:36:45.256Z,17.70
2022-12-13T21:39:14.706Z,17.63
2022-12-13T21:41:43.062Z,17.38
2022-12-13T21:44:14.801Z,17.45
2022-12-13T21:49:28.898Z,17.33
2022-12-13T21:51:55.768Z,18.20
2022-12-13T21:54:22.639Z,18.15
2022-12-13T21:57:07.570Z,16.95
2022-12-13T21:59:34.146Z,16.15
2022-12-13T22:02:20.244Z,17.42
2022-12-13T22:04:49.295Z,15.50
2022-12-13T22:07:19.945Z,16.70
2022-12-13T22:09:47.729Z,16.67
2022-12-13T22:12:53.643Z,15.38
2022-12-13T22:15:20.050Z,15.32
2022-12-13T22:17:46.724Z,14.77
2022-12-13T22:20:15.222Z,15.68
2022-12-13T22:22:43.948Z,14.93
2022-12-13T22:25:10.581Z,14.57
2022-12-13T22:27:37.223Z,14.35
2022-12-13T22:30:04.124Z,16.08
2022-12-13T22:32:32.037Z,17.85
2022-12-13T22:34:58.951Z,22.42
2022-12-13T22:37:26.395Z,26.75
2022-12-13T22:39:53.606Z,28.45
2022-12-13T22:42:20.581Z,29.30
2022-12-13T22:44:47.536Z,22.33
2022-12-13T22:47:15.289Z,20.15
2022-12-13T22:49:41.874Z,17.80
2022-12-13T22:52:08.713Z,15.98
2022-12-13T22:54:35.705Z,16.38
2022-12-13T22:57:02.083Z,14.60
2022-12-13T22:59:28.482Z,15.00
2022-12-13T23:02:01.963Z,14.27
2022-12-13T23:04:32.069Z,15.23
2022-12-13T23:06:58.574Z,14.95
2022-12-13T23:09:24.957Z,14.07
2022-12-13T23:12:10.128Z,14.85
2022-12-13T23:14:36.512Z,14.60
2022-12-13T23:17:03.718Z,14.20
2022-12-13T23:19:51.048Z,14.02
2022-12-13T23:22:17.206Z,13.88
2022-12-13T23:24:43.675Z,13.23
2022-12-13T23:27:10.167Z,14.60
2022-12-13T23:29:36.774Z,13.98
2022-12-13T23:32:03.954Z,13.52
2022-12-13T23:34:30.731Z,14.10
2022-12-13T23:36:57.409Z,14.40
2022-12-13T23:39:24.108Z,14.13
2022-12-13T23:41:50.501Z,14.30
2022-12-13T23:44:16.916Z,15.27
2022-12-13T23:46:48.602Z,15.60
2022-12-13T23:49:15.769Z,14.27
2022-12-13T23:51:42.252Z,13.13
2022-12-13T23:54:11.679Z,13.63
2022-12-13T23:56:38.117Z,13.38
2022-12-13T23:59:04.542Z,13.23
